Time,TemperatureF,DewpointF,PressureIn,WindDirection,WindDirectionDegrees,WindSpeedMPH,WindSpeedGustMPH,Humidity,HourlyPrecipIn,Conditions,Clouds,dailyrainin,SolarRadiationWatts/m^2,SoftwareType,DateUTC
2013-01-18 00:12:00,19.0,1.0,-100.00,WSW,255,11.0,17.0,44,0.00,,,0.00,0.000000,,2013-01-18 07:12:00,
2013-01-18 00:22:00,19.0,1.0,-100.00,WSW,255,11.0,17.0,44,0.00,,,0.00,0.000000,,2013-01-18 07:22:00,
2013-01-18 00:32:00,19.0,1.0,-100.00,WSW,255,11.0,17.0,44,0.00,,,0.00,0.000000,,2013-01-18 07:32:00,
2013-01-18 00:42:00,19.0,1.0,-100.00,WSW,255,11.0,17.0,44,0.00,,,0.00,0.000000,,2013-01-18 07:42:00,
2013-01-18 00:52:00,20.0,1.0,-100.00,WSW,251,12.0,19.0,42,0.00,,,0.00,0.000000,,2013-01-18 07:52:00,
2013-01-18 01:12:00,20.0,1.0,-100.00,WSW,251,12.0,19.0,42,0.00,,,0.00,0.000000,,2013-01-18 08:12:00,
2013-01-18 01:22:00,20.0,1.0,-100.00,WSW,251,12.0,19.0,42,0.00,,,0.00,0.000000,,2013-01-18 08:22:00,
2013-01-18 01:32:00,20.0,1.0,-100.00,WSW,251,12.0,19.0,42,0.00,,,0.00,0.000000,,2013-01-18 08:32:00,
2013-01-18 01:42:00,20.0,1.0,-100.00,WSW,251,12.0,19.0,42,0.00,,,0.00,0.000000,,2013-01-18 08:42:00,
2013-01-18 01:52:00,20.0,0.0,-100.00,WSW,253,14.0,24.0,41,0.00,,,0.00,0.000000,,2013-01-18 08:52:00,
2013-01-18 02:12:00,20.0,0.0,-100.00,WSW,253,14.0,24.0,41,0.00,,,0.00,0.000000,,2013-01-18 09:12:00,
2013-01-18 02:22:00,20.0,0.0,-100.00,WSW,253,14.0,24.0,41,0.00,,,0.00,0.000000,,2013-01-18 09:22:00,
2013-01-18 02:33:00,20.0,0.0,-100.00,WSW,253,14.0,24.0,41,0.00,,,0.00,0.000000,,2013-01-18 09:33:00,
2013-01-18 02:42:00,20.0,0.0,-100.00,WSW,253,14.0,24.0,41,0.00,,,0.00,0.000000,,2013-01-18 09:42:00,
2013-01-18 02:52:00,19.0,0.0,-100.00,WSW,253,13.0,22.0,42,0.00,,,0.00,0.000000,,2013-01-18 09:52:00,
2013-01-18 03:12:00,19.0,0.0,-100.00,WSW,253,13.0,22.0,42,0.00,,,0.00,0.000000,,2013-01-18 10:12:00,
2013-01-18 03:22:00,19.0,0.0,-100.00,WSW,253,13.0,22.0,42,0.00,,,0.00,0.000000,,2013-01-18 10:22:00,
2013-01-18 03:32:00,19.0,0.0,-100.00,WSW,253,13.0,22.0,42,0.00,,,0.00,0.000000,,2013-01-18 10:32:00,
2013-01-18 03:42:00,19.0,0.0,-100.00,WSW,253,13.0,22.0,42,0.00,,,0.00,0.000000,,2013-01-18 10:42:00,
2013-01-18 03:52:00,20.0,0.0,-100.00,WSW,251,15.0,23.0,40,0.00,,,0.00,0.000000,,2013-01-18 10:52:00,
2013-01-18 04:12:00,20.0,0.0,-100.00,WSW,251,15.0,23.0,40,0.00,,,0.00,0.000000,,2013-01-18 11:12:00,
2013-01-18 04:23:00,20.0,0.0,-100.00,WSW,251,15.0,23.0,40,0.00,,,0.00,0.000000,,2013-01-18 11:23:00,
2013-01-18 04:32:00,20.0,0.0,-100.00,WSW,251,15.0,23.0,40,0.00,,,0.00,0.000000,,2013-01-18 11:32:00,
2013-01-18 04:42:00,20.0,0.0,-100.00,WSW,251,15.0,23.0,40,0.00,,,0.00,0.000000,,2013-01-18 11:42:00,
2013-01-18 04:52:00,20.0,-1.0,-100.00,WSW,253,15.0,24.0,39,0.00,,,0.00,0.000000,,2013-01-18 11:52:00,
2013-01-18 05:12:00,20.0,-1.0,-100.00,WSW,253,15.0,24.0,39,0.00,,,0.00,0.000000,,2013-01-18 12:12:00,
2013-01-18 05:22:00,20.0,-1.0,-100.00,WSW,253,15.0,24.0,39,0.00,,,0.00,0.000000,,2013-01-18 12:22:00,
2013-01-18 05:33:00,20.0,-1.0,-100.00,WSW,253,15.0,24.0,39,0.00,,,0.00,0.000000,,2013-01-18 12:33:00,
2013-01-18 05:43:00,20.0,-1.0,-100.00,WSW,253,15.0,24.0,39,0.00,,,0.00,0.000000,,2013-01-18 12:43:00,
2013-01-18 05:52:00,19.0,-1.0,-100.00,WSW,249,17.0,25.0,41,0.00,,,0.00,0.000000,,2013-01-18 12:52:00,
2013-01-18 06:12:00,19.0,-1.0,-100.00,WSW,249,17.0,25.0,41,0.00,,,0.00,0.000000,,2013-01-18 13:12:00,
2013-01-18 06:23:00,19.0,-1.0,-100.00,WSW,249,17.0,25.0,41,0.00,,,0.00,0.000000,,2013-01-18 13:23:00,
2013-01-18 06:33:00,19.0,-1.0,-100.00,WSW,249,17.0,25.0,41,0.00,,,0.00,0.000000,,2013-01-18 13:33:00,
2013-01-18 06:43:00,19.0,-1.0,-100.00,WSW,249,17.0,25.0,41,0.00,,,0.00,0.000000,,2013-01-18 13:43:00,
2013-01-18 06:52:00,19.0,-1.0,-100.00,WSW,251,14.0,29.0,41,0.00,,,0.00,0.000000,,2013-01-18 13:52:00,
2013-01-18 07:23:00,19.0,-1.0,-100.00,WSW,251,14.0,29.0,41,0.00,,,0.00,0.000000,,2013-01-18 14:23:00,
2013-01-18 07:33:00,19.0,-1.0,-100.00,WSW,251,14.0,29.0,41,0.00,,,0.00,0.000000,,2013-01-18 14:33:00,
2013-01-18 07:42:00,19.0,-1.0,-100.00,WSW,251,14.0,29.0,41,0.00,,,0.00,0.000000,,2013-01-18 14:42:00,
2013-01-18 07:52:00,17.0,-1.0,-100.00,WSW,250,8.0,22.0,45,0.00,,,0.00,7.000000,,2013-01-18 14:52:00,
2013-01-18 08:13:00,17.0,-1.0,-100.00,WSW,250,8.0,22.0,45,0.00,,,0.00,7.000000,,2013-01-18 15:13:00,
2013-01-18 08:23:00,17.0,-1.0,-100.00,WSW,250,8.0,22.0,45,0.00,,,0.00,7.000000,,2013-01-18 15:23:00,
2013-01-18 08:33:00,17.0,-1.0,-100.00,WSW,250,8.0,22.0,45,0.00,,,0.00,7.000000,,2013-01-18 15:33:00,
2013-01-18 08:43:00,17.0,-1.0,-100.00,WSW,250,8.0,22.0,45,0.00,,,0.00,7.000000,,2013-01-18 15:43:00,
2013-01-18 08:52:00,24.0,0.0,-100.00,WSW,247,14.0,24.0,35,0.00,,,0.00,149.000000,,2013-01-18 15:52:00,
2013-01-18 09:12:00,24.0,0.0,-100.00,WSW,247,14.0,24.0,35,0.00,,,0.00,149.000000,,2013-01-18 16:12:00,
2013-01-18 09:23:00,24.0,0.0,-100.00,WSW,247,14.0,24.0,35,0.00,,,0.00,149.000000,,2013-01-18 16:23:00,
2013-01-18 09:33:00,24.0,0.0,-100.00,WSW,247,14.0,24.0,35,0.00,,,0.00,149.000000,,2013-01-18 16:33:00,
2013-01-18 09:42:00,24.0,0.0,-100.00,WSW,247,14.0,24.0,35,0.00,,,0.00,149.000000,,2013-01-18 16:42:00,
2013-01-18 09:52:00,26.0,0.0,-100.00,West,260,12.0,23.0,32,0.00,,,0.00,400.000000,,2013-01-18 16:52:00,
2013-01-18 10:13:00,26.0,0.0,-100.00,West,260,12.0,23.0,32,0.00,,,0.00,400.000000,,2013-01-18 17:13:00,
2013-01-18 10:23:00,26.0,0.0,-100.00,West,260,12.0,23.0,32,0.00,,,0.00,400.000000,,2013-01-18 17:23:00,
2013-01-18 10:33:00,26.0,0.0,-100.00,West,260,12.0,23.0,32,0.00,,,0.00,400.000000,,2013-01-18 17:33:00,
2013-01-18 10:43:00,26.0,0.0,-100.00,West,260,12.0,23.0,32,0.00,,,0.00,400.000000,,2013-01-18 17:43:00,
2013-01-18 10:52:00,27.0,2.0,-100.00,WSW,243,11.0,22.0,34,0.00,,,0.00,216.000000,,2013-01-18 17:52:00,
2013-01-18 11:13:00,27.0,2.0,-100.00,WSW,243,11.0,22.0,34,0.00,,,0.00,216.000000,,2013-01-18 18:13:00,
2013-01-18 11:23:00,27.0,2.0,-100.00,WSW,243,11.0,22.0,34,0.00,,,0.00,216.000000,,2013-01-18 18:23:00,
2013-01-18 11:33:00,27.0,2.0,-100.00,WSW,243,11.0,22.0,34,0.00,,,0.00,216.000000,,2013-01-18 18:33:00,
2013-01-18 11:43:00,27.0,2.0,-100.00,WSW,243,11.0,22.0,34,0.00,,,0.00,216.000000,,2013-01-18 18:43:00,
2013-01-18 11:52:00,33.0,3.0,-100.00,WSW,243,11.0,24.0,27,0.00,,,0.00,599.000000,,2013-01-18 18:52:00,
2013-01-18 12:12:00,33.0,3.0,-100.00,WSW,243,11.0,24.0,27,0.00,,,0.00,599.000000,,2013-01-18 19:12:00,
2013-01-18 12:23:00,33.0,3.0,-100.00,WSW,243,11.0,24.0,27,0.00,,,0.00,599.000000,,2013-01-18 19:23:00,
2013-01-18 12:33:00,33.0,3.0,-100.00,WSW,243,11.0,24.0,27,0.00,,,0.00,599.000000,,2013-01-18 19:33:00,
2013-01-18 12:43:00,33.0,3.0,-100.00,WSW,243,11.0,24.0,27,0.00,,,0.00,599.000000,,2013-01-18 19:43:00,
2013-01-18 12:52:00,34.0,6.0,-100.00,WSW,249,16.0,28.0,30,0.00,,,0.00,645.000000,,2013-01-18 19:52:00,
2013-01-18 13:13:00,34.0,6.0,-100.00,WSW,249,16.0,28.0,30,0.00,,,0.00,645.000000,,2013-01-18 20:13:00,
2013-01-18 13:23:00,34.0,6.0,-100.00,WSW,249,16.0,28.0,30,0.00,,,0.00,645.000000,,2013-01-18 20:23:00,
2013-01-18 13:33:00,34.0,6.0,-100.00,WSW,249,16.0,28.0,30,0.00,,,0.00,645.000000,,2013-01-18 20:33:00,
2013-01-18 13:42:00,34.0,6.0,-100.00,WSW,249,16.0,28.0,30,0.00,,,0.00,645.000000,,2013-01-18 20:42:00,
2013-01-18 13:52:00,35.0,4.0,-100.00,WSW,248,15.0,34.0,27,0.00,,,0.00,602.000000,,2013-01-18 20:52:00,
2013-01-18 14:23:00,35.0,4.0,-100.00,WSW,248,15.0,34.0,27,0.00,,,0.00,602.000000,,2013-01-18 21:23:00,
2013-01-18 14:33:00,35.0,4.0,-100.00,WSW,248,15.0,34.0,27,0.00,,,0.00,602.000000,,2013-01-18 21:33:00,
2013-01-18 14:42:00,35.0,4.0,-100.00,WSW,248,15.0,34.0,27,0.00,,,0.00,602.000000,,2013-01-18 21:42:00,
2013-01-18 14:52:00,35.0,3.0,-100.00,WSW,253,18.0,28.0,25,0.00,,,0.00,498.000000,,2013-01-18 21:52:00,
2013-01-18 15:12:00,35.0,3.0,-100.00,WSW,253,18.0,28.0,25,0.00,,,0.00,498.000000,,2013-01-18 22:12:00,
2013-01-18 15:23:00,35.0,3.0,-100.00,WSW,253,18.0,28.0,25,0.00,,,0.00,498.000000,,2013-01-18 22:23:00,
2013-01-18 15:33:00,35.0,3.0,-100.00,WSW,253,18.0,28.0,25,0.00,,,0.00,498.000000,,2013-01-18 22:33:00,
2013-01-18 15:42:00,35.0,3.0,-100.00,WSW,253,18.0,28.0,25,0.00,,,0.00,498.000000,,2013-01-18 22:42:00,
2013-01-18 15:52:00,34.0,5.0,-100.00,WSW,258,12.0,30.0,29,0.00,,,0.00,323.000000,,2013-01-18 22:52:00,
2013-01-18 16:12:00,34.0,5.0,-100.00,WSW,258,12.0,30.0,29,0.00,,,0.00,323.000000,,2013-01-18 23:12:00,
2013-01-18 16:22:00,34.0,5.0,-100.00,WSW,258,12.0,30.0,29,0.00,,,0.00,323.000000,,2013-01-18 23:22:00,
2013-01-18 16:33:00,34.0,5.0,-100.00,WSW,258,12.0,30.0,29,0.00,,,0.00,323.000000,,2013-01-18 23:33:00,
2013-01-18 16:43:00,34.0,5.0,-100.00,WSW,258,12.0,30.0,29,0.00,,,0.00,323.000000,,2013-01-18 23:43:00,
2013-01-18 16:52:00,30.0,4.0,-100.00,WSW,252,8.0,25.0,32,0.00,,,0.00,115.000000,,2013-01-18 23:52:00,
2013-01-18 17:12:00,30.0,4.0,-100.00,WSW,252,8.0,25.0,32,0.00,,,0.00,115.000000,,2013-01-19 00:12:00,
2013-01-18 17:22:00,30.0,4.0,-100.00,WSW,252,8.0,25.0,32,0.00,,,0.00,115.000000,,2013-01-19 00:22:00,
2013-01-18 17:33:00,30.0,4.0,-100.00,WSW,252,8.0,25.0,32,0.00,,,0.00,115.000000,,2013-01-19 00:33:00,
2013-01-18 17:43:00,30.0,4.0,-100.00,WSW,252,8.0,25.0,32,0.00,,,0.00,115.000000,,2013-01-19 00:43:00,
2013-01-18 17:52:00,26.0,4.0,-100.00,WSW,255,7.0,16.0,38,0.00,,,0.00,4.000000,,2013-01-19 00:52:00,
2013-01-18 18:22:00,26.0,4.0,-100.00,WSW,255,7.0,16.0,38,0.00,,,0.00,4.000000,,2013-01-19 01:22:00,
2013-01-18 18:32:00,26.0,4.0,-100.00,WSW,255,7.0,16.0,38,0.00,,,0.00,4.000000,,2013-01-19 01:32:00,
2013-01-18 18:42:00,26.0,4.0,-100.00,WSW,255,7.0,16.0,38,0.00,,,0.00,4.000000,,2013-01-19 01:42:00,
2013-01-18 18:52:00,24.0,3.0,-100.00,WSW,241,8.0,14.0,39,0.00,,,0.00,0.000000,,2013-01-19 01:52:00,
2013-01-18 19:12:00,24.0,3.0,-100.00,WSW,241,8.0,14.0,39,0.00,,,0.00,0.000000,,2013-01-19 02:12:00,
2013-01-18 19:22:00,24.0,3.0,-100.00,WSW,241,8.0,14.0,39,0.00,,,0.00,0.000000,,2013-01-19 02:22:00,
2013-01-18 19:33:00,24.0,3.0,-100.00,WSW,241,8.0,14.0,39,0.00,,,0.00,0.000000,,2013-01-19 02:33:00,
2013-01-18 19:42:00,24.0,3.0,-100.00,WSW,241,8.0,14.0,39,0.00,,,0.00,0.000000,,2013-01-19 02:42:00,
2013-01-18 19:52:00,22.0,1.0,-100.00,SW,225,7.0,11.0,40,0.00,,,0.00,0.000000,,2013-01-19 02:52:00,
2013-01-18 20:12:00,22.0,1.0,-100.00,SW,225,7.0,11.0,40,0.00,,,0.00,0.000000,,2013-01-19 03:12:00,
2013-01-18 20:22:00,22.0,1.0,-100.00,SW,225,7.0,11.0,40,0.00,,,0.00,0.000000,,2013-01-19 03:22:00,
2013-01-18 20:33:00,22.0,1.0,-100.00,SW,225,7.0,11.0,40,0.00,,,0.00,0.000000,,2013-01-19 03:33:00,
2013-01-18 20:43:00,22.0,1.0,-100.00,SW,225,7.0,11.0,40,0.00,,,0.00,0.000000,,2013-01-19 03:43:00,
2013-01-18 20:52:00,22.0,1.0,-100.00,WSW,237,8.0,14.0,39,0.00,,,0.00,0.000000,,2013-01-19 03:52:00,
2013-01-18 21:12:00,22.0,1.0,-100.00,WSW,237,8.0,14.0,39,0.00,,,0.00,0.000000,,2013-01-19 04:12:00,
2013-01-18 21:22:00,22.0,1.0,-100.00,WSW,237,8.0,14.0,39,0.00,,,0.00,0.000000,,2013-01-19 04:22:00,
2013-01-18 21:32:00,22.0,1.0,-100.00,WSW,237,8.0,14.0,39,0.00,,,0.00,0.000000,,2013-01-19 04:32:00,
2013-01-18 21:42:00,22.0,1.0,-100.00,WSW,237,8.0,14.0,39,0.00,,,0.00,0.000000,,2013-01-19 04:42:00,
2013-01-18 21:52:00,21.0,1.0,-100.00,SW,230,6.0,14.0,40,0.00,,,0.00,0.000000,,2013-01-19 04:52:00,
2013-01-18 22:12:00,21.0,1.0,-100.00,SW,230,6.0,14.0,40,0.00,,,0.00,0.000000,,2013-01-19 05:12:00,
2013-01-18 22:23:00,21.0,1.0,-100.00,SW,230,6.0,14.0,40,0.00,,,0.00,0.000000,,2013-01-19 05:23:00,
2013-01-18 22:33:00,21.0,1.0,-100.00,SW,230,6.0,14.0,40,0.00,,,0.00,0.000000,,2013-01-19 05:33:00,
2013-01-18 22:42:00,21.0,1.0,-100.00,SW,230,6.0,14.0,40,0.00,,,0.00,0.000000,,2013-01-19 05:42:00,
2013-01-18 22:52:00,21.0,2.0,-100.00,SW,233,8.0,15.0,42,0.00,,,0.00,0.000000,,2013-01-19 05:52:00,
2013-01-18 23:12:00,21.0,2.0,-100.00,SW,233,8.0,15.0,42,0.00,,,0.00,0.000000,,2013-01-19 06:12:00,
2013-01-18 23:22:00,21.0,2.0,-100.00,SW,233,8.0,15.0,42,0.00,,,0.00,0.000000,,2013-01-19 06:22:00,
2013-01-18 23:32:00,21.0,2.0,-100.00,SW,233,8.0,15.0,42,0.00,,,0.00,0.000000,,2013-01-19 06:32:00,
2013-01-18 23:43:00,21.0,2.0,-100.00,SW,233,8.0,15.0,42,0.00,,,0.00,0.000000,,2013-01-19 06:43:00,
2013-01-18 23:52:00,19.0,1.0,-100.00,WSW,251,7.0,14.0,45,0.00,,,0.00,0.000000,,2013-01-19 06:52:00,